Terminal Aerodrome Forecast
Issued by NWS

Home | Current Version | Previous Version | Text Only | Print | Product List | Glossary On
Versions: 1 2 3 4 5 6 7 8 9 10 11 12 13 14 15 16 17 18 19 20 21 22 23 24 25 26 27 28 29 30 31 32 33 34 35 36 37 38 39 40 41
000
FTUS41 KRNK 180520
TAFLWB
TAF
KLWB 180520Z 1806/1906 29010KT P6SM OVC012
      TEMPO 1806/1808 4SM -RA BR
     FM180900 30010KT P6SM SCT035
     FM181900 21004KT P6SM FEW250
     FM182100 15004KT P6SM FEW250
     FM190400 12004KT P6SM BKN035=

USA.gov is the U.S. government's official web portal to all federal, state and local government web resources and services.